Saturday, July 4, 2015, 9:35 AM EDT

KTHV, York Airport

Location: Spring Grove, PA, United States Lat: 39.917
Local Time: 9:35 AM EDT (13:35 GMT) Lon: -76.883
Time Zone: US/Eastern Elev: 478 ft

Show me the last for .
Show Decoded

2015-07-04 09:27 METAR KTHV 041327Z AUTO 00000KT 3SM BR OVC005 21/19 A2993 RMK AO2 RAB05E19 CIG
                 004V009 P0000 T02060189 =
2015-07-04 09:19 METAR KTHV 041319Z AUTO 00000KT 3SM BR OVC004 20/19 A2993 RMK AO2 RAB05E19 P0000
                 T02000194 =
2015-07-04 09:09 METAR KTHV 041309Z AUTO 00000KT 2 1/2SM -RA BR BKN004 OVC044 20/19 A2993 RMK AO2
                 RAB05 P0000 T02000189 =
2015-07-04 08:53 METAR KTHV 041253Z AUTO 00000KT 3SM BR BKN004 BKN010 OVC044 20/19 A2992 RMK AO2
                 RAE44 SLP131 P0003 T02000189 =
2015-07-04 08:45 METAR KTHV 041245Z AUTO 04004KT 3SM BR FEW004 BKN010 OVC042 20/19 A2992 RMK AO2
                 RAE44 P0003 T02000189 =
2015-07-04 08:35 METAR KTHV 041235Z AUTO 00000KT 2 1/2SM -RA BR FEW004 BKN011 OVC050 19/19 A2992
                 RMK AO2 P0003 T01940189 =
2015-07-04 08:27 METAR KTHV 041227Z AUTO 00000KT 2 1/2SM -RA BR FEW004 BKN017 OVC055 19/19 A2992
                 RMK AO2 P0002 T01940189 =
2015-07-04 08:17 METAR KTHV 041217Z AUTO 06003KT 2 1/2SM -RA BR FEW010 SCT017 OVC055 19/19 A2992
                 RMK AO2 P0002 T01940189 =
2015-07-04 08:01 METAR KTHV 041201Z AUTO 00000KT 1 3/4SM RA BR BKN055 OVC065 19/19 A2992 RMK AO2
                 P0002 T01940189 =
2015-07-04 07:53 METAR KTHV 041153Z AUTO 00000KT 2SM RA BR BKN050 OVC070 19/19 A2992 RMK AO2
                 SLP131 P0005 60021 70021 T01940189 10211 20183 53003 =
2015-07-04 07:50 METAR KTHV 041150Z AUTO 00000KT 2SM RA BR BKN055 OVC070 19/19 A2992 RMK AO2
                 P0004 =
2015-07-04 07:33 METAR KTHV 041133Z AUTO 00000KT 3SM -RA BR BKN075 OVC100 19/18 A2992 RMK AO2
                 P0003 T01940183 =
2015-07-04 07:17 METAR KTHV 041117Z AUTO 00000KT 2 1/2SM -RA BR SCT016 BKN085 OVC100 19/18 A2991
                 RMK AO2 P0003 T01940183 =
2015-07-04 07:09 METAR KTHV 041109Z AUTO 00000KT 1 3/4SM -RA BR SCT014 BKN055 OVC085 19/18 A2991
                 RMK AO2 P0002 T01890183 =
2015-07-04 07:03 METAR KTHV 041103Z AUTO 00000KT 1 1/2SM RA BR BKN014 BKN023 OVC060 19/18 A2991
                 RMK AO2 P0002 T01890183 =
2015-07-04 06:55 METAR KTHV 041055Z AUTO 00000KT 2SM -RA BR BKN014 BKN021 OVC055 19/18 A2992 RMK
                 AO2 P0000 T01890183 =
2015-07-04 06:53 METAR KTHV 041053Z AUTO 00000KT 2 1/2SM -RA BR SCT014 BKN021 OVC055 19/18 A2992
                 RMK AO2 RAB53 SLP130 P0000 T01890183 =
2015-07-04 05:53 METAR KTHV 040953Z AUTO 00000KT 3SM BR OVC055 18/18 A2991 RMK AO2 RAE0858B20E30
                 SLP126 P0000 T01830178 =
2015-07-04 04:53 METAR KTHV 040853Z AUTO 00000KT 6SM -RA BR FEW015 OVC060 18/17 A2991 RMK AO2
                 SLP128 P0009 60016 T01830172 58008 =
2015-07-04 03:53 METAR KTHV 040753Z AUTO 30004KT 4SM -RA BR OVC060 19/17 A2992 RMK AO2 SLP132
                 P0007 T01890172 =
2015-07-04 03:51 METAR KTHV 040751Z AUTO 30004KT 3SM -RA BR OVC060 19/17 A2992 RMK AO2 P0007 =
2015-07-04 03:44 METAR KTHV 040744Z AUTO 00000KT 2SM RA BR OVC060 19/18 A2992 RMK AO2 P0006
                 T01890183 =
2015-07-04 02:53 METAR KTHV 040653Z AUTO 00000KT 6SM -RA BR OVC060 20/18 A2993 RMK AO2
                 RAB21E30B48 SLP134 P0000 T02000183 =
2015-07-04 01:53 METAR KTHV 040553Z AUTO 00000KT 9SM OVC060 21/18 A2993 RMK AO2 SLP135 T02060178
                 10233 20206 58004 =
2015-07-04 00:53 METAR KTHV 040453Z AUTO 00000KT 10SM FEW022 BKN034 OVC065 21/17 A2994 RMK AO2
                 SLP137 T02110172 402610139 =
2015-07-03 22:53 METAR KTHV 040253Z AUTO 14003KT 10SM OVC070 22/16 A2995 RMK AO2 SLP138 T02170161
                 53001 =
2015-07-03 20:53 METAR KTHV 040053Z AUTO 14003KT 10SM BKN080 22/17 A2993 RMK AO2 SLP136 T02220167
                 =
2015-07-03 18:53 METAR KTHV 032253Z AUTO 14004KT 10SM OVC070 24/18 A2994 RMK AO2 SLP138 T02390178
                 =
2015-07-03 17:53 METAR KTHV 032153Z AUTO 16006KT 10SM FEW085 24/17 A2995 RMK AO2 SLP141 T02440172
                 =
2015-07-03 16:53 METAR KTHV 032053Z AUTO 10SM BKN040 BKN048 OVC070 25/17 A2996 RMK AO2 SLP143
                 T02500172 56008 =
2015-07-03 15:53 METAR KTHV 031953Z AUTO VRB04KT 10SM FEW060 26/17 A2996 RMK AO2 SLP145 T02560172
                 =
2015-07-03 14:53 METAR KTHV 031853Z AUTO 20006KT 10SM FEW047 26/17 A2997 RMK AO2 SLP147 T02560172
                 =
2015-07-03 13:53 METAR KTHV 031753Z AUTO VRB03KT 10SM SCT042 26/17 A2998 RMK AO2 SLP152 T02610167
                 10261 20172 58007 =
2015-07-03 12:53 METAR KTHV 031653Z AUTO 14007KT 10SM SCT038 25/17 A2999 RMK AO2 SLP154 T02500167
                 =
2015-07-03 11:53 METAR KTHV 031553Z AUTO 07003KT 10SM SCT031 25/17 A3000 RMK AO2 SLP158 T02500172
                 =
2015-07-03 10:53 METAR KTHV 031453Z AUTO 09005KT 10SM CLR 23/17 A3000 RMK AO2 SLP159 T02330167
                 51006 =
2015-07-03 09:53 METAR KTHV 031353Z AUTO 12004KT 10SM CLR 22/17 A3000 RMK AO2 SLP158 T02170167 =

Support USWX by starting your Amazon purchase here.